Time;durP1;ratioP1;P1;durP2;ratioP2;P2;SDS_P1;SDS_P2;PMS_P1;PMS_P2;Temp;Humidity;BMP_temperature;BMP_pressure;BME280_temperature;BME280_humidity;BME280_pressure;Samples;Min_cycle;Max_cycle;Signal;HPM_P1;HPM_P2
2021/09/06 00:01:42;;;;;;;11.38;6.55;;;;;;;12.40;100.00;97983.16;5057809;28;20099;-80
2021/09/06 00:04:07;;;;;;;10.63;6.40;;;;;;;12.36;100.00;97989.69;5054387;28;20166;-80
2021/09/06 00:06:38;;;;;;;9.00;6.22;;;;;;;12.43;100.00;98004.44;5037595;28;20031;-80
2021/09/06 00:09:03;;;;;;;12.25;6.90;;;;;;;12.22;100.00;97962.84;5063540;28;20099;-80
2021/09/06 00:11:29;;;;;;;12.27;6.85;;;;;;;12.39;100.00;97999.38;5054457;28;20051;-80
2021/09/06 00:13:55;;;;;;;11.93;6.93;;;;;;;12.35;100.00;97985.28;5056780;28;20483;-80
2021/09/06 00:16:20;;;;;;;11.25;6.50;;;;;;;12.44;100.00;97987.38;5054169;28;20381;-80
2021/09/06 00:18:46;;;;;;;10.10;6.50;;;;;;;12.57;100.00;98008.09;5055401;28;20031;-80
2021/09/06 00:21:11;;;;;;;12.98;7.20;;;;;;;12.46;100.00;98001.56;5071106;28;20025;-80
2021/09/06 00:23:37;;;;;;;9.38;6.93;;;;;;;12.47;100.00;98019.41;5050861;28;20397;-80
2021/09/06 00:26:03;;;;;;;12.68;6.47;;;;;;;12.29;100.00;97976.75;5050885;28;20031;-79
2021/09/06 00:28:29;;;;;;;11.75;7.13;;;;;;;12.42;100.00;98001.88;5052202;28;20027;-80
2021/09/06 00:30:55;;;;;;;12.23;7.35;;;;;;;12.41;100.00;98010.84;5074324;28;20036;-80
2021/09/06 00:33:21;;;;;;;10.93;7.05;;;;;;;12.44;100.00;98024.09;5074759;28;20024;-80
2021/09/06 00:35:48;;;;;;;14.18;7.13;;;;;;;12.32;100.00;98014.97;5055393;28;20396;-80
2021/09/06 00:38:16;;;;;;;16.42;7.88;;;;;;;12.13;100.00;97987.56;5057559;28;20094;-80
2021/09/06 00:40:51;;;;;;;14.63;8.07;;;;;;;12.40;100.00;98027.91;5054237;28;20028;-80
2021/09/06 00:43:18;;;;;;;14.18;7.93;;;;;;;12.36;100.00;98021.88;5051190;28;20089;-80
2021/09/06 00:45:47;;;;;;;12.82;7.57;;;;;;;12.36;100.00;98027.25;5074505;28;20052;-80
2021/09/06 00:48:20;;;;;;;14.07;8.75;;;;;;;12.37;100.00;98034.31;5074031;28;20025;-80
2021/09/06 00:50:46;;;;;;;12.55;8.02;;;;;;;12.42;100.00;98042.09;5058425;28;20048;-79
2021/09/06 00:53:12;;;;;;;11.38;7.45;;;;;;;12.33;100.00;98021.22;5073935;28;20024;-80
2021/09/06 00:55:38;;;;;;;13.40;7.10;;;;;;;12.28;100.00;98036.69;5074374;28;20020;-80
2021/09/06 00:58:04;;;;;;;12.07;6.65;;;;;;;12.01;100.00;98016.91;5054516;28;20036;-79
2021/09/06 01:00:30;;;;;;;10.88;6.97;;;;;;;12.02;100.00;98032.94;5037613;28;20515;-80
2021/09/06 01:02:55;;;;;;;13.75;6.88;;;;;;;11.84;100.00;98023.31;5037264;28;20124;-80
2021/09/06 01:05:21;;;;;;;13.25;6.40;;;;;;;11.80;100.00;98027.13;5059418;28;20050;-80
2021/09/06 01:07:47;;;;;;;13.80;6.63;;;;;;;11.80;100.00;98038.72;5071336;28;20028;-80
2021/09/06 01:10:14;;;;;;;9.00;6.53;;;;;;;11.69;100.00;98018.81;5074209;28;20028;-80
2021/09/06 01:12:40;;;;;;;10.30;6.63;;;;;;;11.80;100.00;98037.84;5057252;28;20056;-79
2021/09/06 01:15:07;;;;;;;11.23;6.97;;;;;;;11.75;100.00;98040.78;5053734;28;20507;-80
2021/09/06 01:17:32;;;;;;;11.45;6.25;;;;;;;11.67;100.00;98026.06;5068754;28;20055;-80
2021/09/06 01:19:58;;;;;;;12.43;6.22;;;;;;;11.61;100.00;98024.63;5053695;28;20071;-80
2021/09/06 01:22:24;;;;;;;11.18;6.22;;;;;;;11.57;100.00;98019.50;5042400;28;20048;-80
2021/09/06 01:24:50;;;;;;;11.27;6.65;;;;;;;11.49;100.00;98027.16;5057325;28;20021;-80
2021/09/06 01:27:16;;;;;;;13.43;6.45;;;;;;;11.56;100.00;98039.25;5057577;28;20492;-80
2021/09/06 01:29:42;;;;;;;14.68;6.93;;;;;;;11.36;100.00;98025.16;5057144;28;20012;-79
2021/09/06 01:32:08;;;;;;;12.85;7.85;;;;;;;11.33;100.00;98036.06;5070168;28;20507;-80
2021/09/06 01:34:33;;;;;;;13.15;7.40;;;;;;;11.25;100.00;98024.06;5043465;28;20458;-80
2021/09/06 01:37:00;;;;;;;14.35;8.40;;;;;;;11.22;100.00;98027.78;5073572;28;20024;-80
2021/09/06 01:39:26;;;;;;;16.48;9.18;;;;;;;11.24;100.00;98031.22;5072313;28;20021;-80
2021/09/06 01:41:52;;;;;;;12.82;8.57;;;;;;;11.26;100.00;98026.66;5056347;28;20082;-80
2021/09/06 01:44:17;;;;;;;14.10;8.77;;;;;;;11.38;100.00;98039.34;5056548;28;20462;-80
2021/09/06 01:46:43;;;;;;;15.73;8.70;;;;;;;11.29;100.00;98028.28;5086303;28;20104;-80
2021/09/06 01:49:08;;;;;;;13.63;8.07;;;;;;;11.39;100.00;98043.75;5056839;28;20025;-80
2021/09/06 01:51:34;;;;;;;20.83;8.95;;;;;;;11.41;100.00;98043.69;5073294;28;20082;-80
2021/09/06 01:53:59;;;;;;;13.32;8.15;;;;;;;11.29;100.00;98010.41;5058360;28;20086;-80
2021/09/06 01:56:25;;;;;;;18.92;8.90;;;;;;;11.44;100.00;98041.66;5073331;28;20032;-80
2021/09/06 01:58:51;;;;;;;16.00;8.50;;;;;;;11.52;100.00;98053.75;5073041;28;20039;-80
2021/09/06 02:01:17;;;;;;;15.75;7.90;;;;;;;11.40;100.00;98040.13;5056315;28;20028;-80
2021/09/06 02:03:43;;;;;;;12.57;8.07;;;;;;;11.57;100.00;98063.25;5069746;28;20036;-79
2021/09/06 02:06:09;;;;;;;14.23;7.90;;;;;;;11.39;100.00;98033.03;5063840;28;20059;-80
2021/09/06 02:08:34;;;;;;;17.02;8.15;;;;;;;11.57;100.00;98057.03;5073348;28;20016;-80
2021/09/06 02:11:00;;;;;;;12.93;8.25;;;;;;;11.53;100.00;98040.28;5056250;28;20028;-80
2021/09/06 02:13:26;;;;;;;16.13;7.60;;;;;;;11.52;100.00;98040.34;5074313;28;20040;-80
2021/09/06 02:15:51;;;;;;;13.80;8.15;;;;;;;11.50;100.00;98035.09;5056365;28;20020;-80
2021/09/06 02:18:17;;;;;;;12.07;7.53;;;;;;;11.60;100.00;98065.75;5072754;28;20418;-80
2021/09/06 02:20:43;;;;;;;12.50;7.68;;;;;;;11.60;100.00;98068.44;5052792;28;20025;-80
2021/09/06 02:23:09;;;;;;;15.30;8.65;;;;;;;11.58;100.00;98066.78;5071094;28;20094;-80
2021/09/06 02:25:35;;;;;;;21.40;9.10;;;;;;;11.56;100.00;98074.94;5052711;28;20111;-80
2021/09/06 02:28:00;;;;;;;14.07;8.70;;;;;;;11.52;100.00;98061.78;5061735;28;20112;-80
2021/09/06 02:30:26;;;;;;;15.30;9.15;;;;;;;11.49;100.00;98070.88;5072643;28;20028;-79
2021/09/06 02:32:52;;;;;;;15.38;8.73;;;;;;;11.46;100.00;98064.81;5069196;28;20112;-80
2021/09/06 02:35:17;;;;;;;15.85;8.20;;;;;;;11.42;100.00;98070.34;5047024;28;20070;-80
2021/09/06 02:37:43;;;;;;;12.10;7.45;;;;;;;11.41;100.00;98079.34;5070294;28;20021;-81
2021/09/06 02:40:09;;;;;;;15.75;8.65;;;;;;;11.49;100.00;98091.44;5050229;28;20025;-80
2021/09/06 02:42:35;;;;;;;11.40;7.68;;;;;;;11.23;100.00;98050.91;5054255;28;20400;-80
2021/09/06 02:45:01;;;;;;;12.63;7.60;;;;;;;11.20;100.00;98047.53;5068831;28;20021;-79
2021/09/06 02:47:28;;;;;;;13.77;7.60;;;;;;;11.28;100.00;98070.28;5071975;28;20078;-80
2021/09/06 02:49:55;;;;;;;11.85;7.85;;;;;;;11.20;100.00;98088.59;5055369;28;20067;-80
2021/09/06 02:52:21;;;;;;;16.17;7.80;;;;;;;11.02;100.00;98081.56;5052098;28;20040;-79
2021/09/06 02:54:47;;;;;;;23.83;8.88;;;;;;;10.96;100.00;98073.88;5067837;28;20062;-80
2021/09/06 02:57:12;;;;;;;13.98;7.85;;;;;;;10.82;100.00;98057.72;5071573;28;20028;-79
2021/09/06 02:59:38;;;;;;;12.75;7.75;;;;;;;11.03;100.00;98087.78;5072089;28;20028;-80
2021/09/06 03:02:04;;;;;;;16.52;7.65;;;;;;;10.95;100.00;98077.50;5071858;28;20605;-80
2021/09/06 03:04:29;;;;;;;13.82;7.82;;;;;;;10.88;100.00;98078.81;5072087;28;20056;-79
2021/09/06 03:06:55;;;;;;;14.80;7.38;;;;;;;10.83;100.00;98072.81;5051818;28;20039;-80
2021/09/06 03:09:20;;;;;;;12.77;7.35;;;;;;;10.93;100.00;98098.13;5035097;28;20024;-80
2021/09/06 03:11:46;;;;;;;15.50;7.60;;;;;;;10.74;100.00;98076.00;5035185;28;20106;-80
2021/09/06 03:14:11;;;;;;;14.38;7.38;;;;;;;10.83;100.00;98097.78;5052631;28;20534;-80
2021/09/06 03:16:37;;;;;;;18.30;7.95;;;;;;;10.82;100.00;98105.91;5071242;28;20511;-79
2021/09/06 03:19:03;;;;;;;17.75;8.00;;;;;;;10.66;100.00;98086.25;5072583;28;20408;-80
2021/09/06 03:21:28;;;;;;;19.23;8.00;;;;;;;10.63;100.00;98083.75;5054598;28;20541;-80
2021/09/06 03:23:54;;;;;;;17.27;8.30;;;;;;;10.65;100.00;98109.47;5071377;28;20045;-81
2021/09/06 03:26:20;;;;;;;14.52;7.78;;;;;;;10.57;100.00;98102.78;5046203;28;20043;-80
2021/09/06 03:28:46;;;;;;;13.35;7.60;;;;;;;10.60;100.00;98111.53;5054698;28;20120;-80
2021/09/06 03:31:12;;;;;;;11.30;7.18;;;;;;;10.64;100.00;98117.59;5067664;28;20025;-80
2021/09/06 03:33:38;;;;;;;14.77;7.43;;;;;;;10.57;100.00;98113.50;5047365;28;20097;-80
2021/09/06 03:36:04;;;;;;;14.15;7.63;;;;;;;10.49;100.00;98119.22;5054779;28;20454;-80
2021/09/06 03:38:29;;;;;;;17.50;8.25;;;;;;;10.50;100.00;98098.72;5071019;28;20016;-80
2021/09/06 03:40:55;;;;;;;16.45;8.05;;;;;;;10.44;100.00;98089.22;5054142;28;20092;-80
2021/09/06 03:43:20;;;;;;;14.05;8.02;;;;;;;10.45;100.00;98096.28;5071485;28;20036;-80
2021/09/06 03:45:46;;;;;;;16.20;7.53;;;;;;;10.50;100.00;98096.03;5071137;28;20035;-80
2021/09/06 03:48:12;;;;;;;19.95;8.23;;;;;;;10.63;100.00;98121.19;5070884;28;20032;-80
2021/09/06 03:50:37;;;;;;;15.93;8.40;;;;;;;10.62;100.00;98125.69;5051323;28;20409;-80
2021/09/06 03:53:03;;;;;;;15.98;8.13;;;;;;;10.66;100.00;98145.13;5051406;28;20053;-80
2021/09/06 03:55:28;;;;;;;13.20;8.20;;;;;;;10.58;100.00;98129.44;5045317;28;20049;-80
2021/09/06 03:57:54;;;;;;;10.80;7.50;;;;;;;10.64;100.00;98134.47;5071105;28;20040;-80
2021/09/06 04:00:19;;;;;;;14.82;8.48;;;;;;;10.50;100.00;98109.41;5051061;28;20032;-79
2021/09/06 04:02:45;;;;;;;16.88;8.70;;;;;;;10.70;100.00;98141.34;5060934;28;20043;-80
2021/09/06 04:05:11;;;;;;;19.10;8.60;;;;;;;10.72;100.00;98142.09;5063994;28;20043;-80
2021/09/06 04:07:36;;;;;;;13.88;8.48;;;;;;;10.72;100.00;98134.97;5054649;28;20401;-80
2021/09/06 04:10:02;;;;;;;14.55;8.07;;;;;;;10.75;100.00;98134.78;5067392;28;20051;-80
2021/09/06 04:12:28;;;;;;;17.63;7.35;;;;;;;10.64;100.00;98121.09;5055086;28;20031;-80
2021/09/06 04:14:53;;;;;;;19.95;8.07;;;;;;;10.80;100.00;98158.63;5038515;28;20060;-79
2021/09/06 04:17:19;;;;;;;22.05;9.48;;;;;;;10.82;100.00;98144.22;5038042;28;20040;-80
2021/09/06 04:19:44;;;;;;;21.35;9.40;;;;;;;11.02;100.00;98172.59;5059351;28;20036;-80
2021/09/06 04:22:10;;;;;;;14.27;8.45;;;;;;;10.99;100.00;98156.69;5058265;28;20040;-79
2021/09/06 04:24:35;;;;;;;16.05;7.85;;;;;;;11.01;100.00;98148.59;5054897;28;20033;-80
2021/09/06 04:27:01;;;;;;;20.02;8.00;;;;;;;11.11;100.00;98149.81;5069974;28;20492;-80
2021/09/06 04:29:27;;;;;;;15.70;7.68;;;;;;;11.09;100.00;98157.06;5073265;28;20037;-80
2021/09/06 04:31:53;;;;;;;13.70;8.60;;;;;;;11.13;100.00;98164.84;5058273;28;20063;-80
2021/09/06 04:34:18;;;;;;;22.75;9.00;;;;;;;10.88;100.00;98114.47;5075737;28;20035;-79
2021/09/06 04:36:44;;;;;;;17.98;8.90;;;;;;;11.33;100.00;98179.81;5070859;28;20028;-80
2021/09/06 04:39:09;;;;;;;19.08;8.73;;;;;;;11.23;100.00;98163.38;5071291;28;20028;-80
2021/09/06 04:41:35;;;;;;;17.33;8.80;;;;;;;11.36;100.00;98172.50;5075518;28;20044;-80
2021/09/06 04:44:00;;;;;;;26.10;9.75;;;;;;;11.57;100.00;98205.25;5058255;28;20028;-80
2021/09/06 04:46:26;;;;;;;28.48;12.50;;;;;;;11.51;100.00;98194.00;5074365;28;20487;-80
2021/09/06 04:48:52;;;;;;;23.05;9.98;;;;;;;11.56;100.00;98200.00;5074706;28;20488;-80
2021/09/06 04:51:17;;;;;;;28.17;10.98;;;;;;;11.62;100.00;98194.31;5075927;28;20431;-79
2021/09/06 04:53:46;;;;;;;16.77;9.00;;;;;;;11.37;100.00;98165.31;5057115;28;20119;-81
2021/09/06 04:56:12;;;;;;;15.63;8.70;;;;;;;11.78;100.00;98205.94;5053584;28;20500;-80
2021/09/06 04:58:38;;;;;;;31.02;10.48;;;;;;;11.74;100.00;98210.59;5089885;28;20507;-80
2021/09/06 05:01:03;;;;;;;31.23;14.00;;;;;;;11.72;100.00;98201.75;5073762;28;20020;-81
2021/09/06 05:03:29;;;;;;;20.48;9.05;;;;;;;11.81;100.00;98195.88;5073656;28;20029;-81
2021/09/06 05:05:58;;;;;;;13.02;7.82;;;;;;;11.96;100.00;98215.63;5057323;28;20162;-81
2021/09/06 05:08:24;;;;;;;20.92;8.63;;;;;;;11.89;100.00;98200.81;5075126;28;20049;-81
2021/09/06 05:10:49;;;;;;;15.45;8.30;;;;;;;12.01;100.00;98197.44;5070805;28;20017;-81
2021/09/06 05:13:15;;;;;;;15.57;7.70;;;;;;;12.13;100.00;98207.44;5059558;28;20113;-80
2021/09/06 05:15:40;;;;;;;17.27;7.70;;;;;;;12.21;100.00;98215.91;5075945;28;20059;-82
2021/09/06 05:18:06;;;;;;;13.52;7.82;;;;;;;12.16;100.00;98207.28;5074866;28;20036;-78
2021/09/06 05:20:31;;;;;;;20.30;8.77;;;;;;;12.11;100.00;98192.41;5070687;28;20025;-79
2021/09/06 05:22:57;;;;;;;15.50;7.70;;;;;;;12.52;100.00;98229.28;5046963;28;20041;-82
2021/09/06 05:25:23;;;;;;;16.05;8.63;;;;;;;12.65;100.00;98210.63;5069439;28;20029;-79
2021/09/06 05:27:48;;;;;;;21.08;10.93;;;;;;;12.78;100.00;98218.81;5074088;28;20063;-78
2021/09/06 05:30:14;;;;;;;14.05;8.43;;;;;;;13.29;99.26;98239.84;5073969;28;20030;-78
2021/09/06 05:32:40;;;;;;;28.92;11.55;;;;;;;14.52;89.78;98240.84;5072196;28;20113;-78
2021/09/06 05:35:06;;;;;;;28.98;11.27;;;;;;;14.56;87.71;98253.13;5072449;28;20032;-78
2021/09/06 05:37:31;;;;;;;41.83;18.48;;;;;;;14.53;88.92;98258.72;5071974;28;20025;-78
2021/09/06 05:39:57;;;;;;;23.45;12.55;;;;;;;15.05;84.89;98249.81;5055493;28;20516;-78
2021/09/06 05:42:22;;;;;;;21.88;10.60;;;;;;;16.53;76.88;98260.69;5072512;28;20029;-78
2021/09/06 05:44:50;;;;;;;23.30;10.10;;;;;;;17.80;69.61;98272.47;5072018;28;20036;-78
2021/09/06 05:47:16;;;;;;;19.88;11.07;;;;;;;18.85;64.62;98256.56;5072105;28;20020;-78
2021/09/06 05:49:42;;;;;;;24.55;10.73;;;;;;;19.47;60.08;98248.50;5073091;28;20378;-79
2021/09/06 05:52:07;;;;;;;21.42;10.82;;;;;;;19.47;60.65;98259.34;5072499;28;20077;-78
2021/09/06 05:54:33;;;;;;;19.15;10.40;;;;;;;20.67;56.24;98275.81;5052750;28;20029;-78
2021/09/06 05:56:59;;;;;;;22.23;9.68;;;;;;;19.95;56.55;98281.38;5055489;28;20123;-78
2021/09/06 05:59:25;;;;;;;17.80;9.70;;;;;;;19.36;58.52;98259.41;5055327;28;20124;-78
2021/09/06 06:01:50;;;;;;;19.00;10.65;;;;;;;17.84;64.35;98273.09;5071165;28;20024;-77
2021/09/06 06:04:16;;;;;;;14.65;8.23;;;;;;;18.61;63.75;98266.72;5071646;28;20172;-77
2021/09/06 06:06:41;;;;;;;18.25;9.65;;;;;;;19.88;58.11;98265.75;5070211;28;20404;-77
2021/09/06 06:09:07;;;;;;;16.25;9.23;;;;;;;21.54;53.91;98263.97;5068826;28;20025;-79
2021/09/06 06:11:32;;;;;;;14.70;8.13;;;;;;;22.33;49.84;98244.53;5066008;28;20427;-78
2021/09/06 06:13:58;;;;;;;20.90;7.90;;;;;;;21.02;52.25;98295.19;5051693;28;20541;-79
2021/09/06 06:16:23;;;;;;;14.02;8.07;;;;;;;21.29;53.36;98296.34;5067880;28;20028;-78
2021/09/06 06:18:49;;;;;;;14.68;7.82;;;;;;;22.67;49.37;98281.97;5072489;28;20476;-79
2021/09/06 06:21:14;;;;;;;10.95;7.22;;;;;;;23.34;47.26;98274.31;5051956;28;20037;-79
2021/09/06 06:23:40;;;;;;;15.77;7.78;;;;;;;24.50;43.96;98258.41;5066786;28;20045;-79
2021/09/06 06:26:05;;;;;;;18.52;7.03;;;;;;;24.71;43.33;98267.03;5070973;28;20024;-78
2021/09/06 06:28:31;;;;;;;14.18;7.28;;;;;;;25.94;41.23;98267.03;5054910;28;20094;-78
2021/09/06 06:30:57;;;;;;;18.42;7.22;;;;;;;25.86;41.05;98266.03;5071265;28;20032;-78
2021/09/06 06:33:22;;;;;;;14.70;7.78;;;;;;;25.57;41.50;98281.28;5071451;28;20492;-78
2021/09/06 06:35:48;;;;;;;19.70;8.75;;;;;;;25.93;40.94;98277.16;5072665;28;20036;-78
2021/09/06 06:38:13;;;;;;;27.85;10.05;;;;;;;25.70;41.07;98271.53;5051135;28;20061;-78
2021/09/06 06:40:39;;;;;;;20.98;12.18;;;;;;;25.22;41.80;98266.88;5068842;28;20408;-78
2021/09/06 06:43:04;;;;;;;21.88;12.40;;;;;;;25.87;40.50;98261.41;5071511;28;20036;-78
2021/09/06 06:45:30;;;;;;;21.30;10.18;;;;;;;25.56;41.41;98279.59;5071103;28;20060;-78
2021/09/06 06:47:55;;;;;;;17.95;10.05;;;;;;;24.08;43.84;98308.41;5072230;28;20039;-78
2021/09/06 06:50:24;;;;;;;18.67;9.52;;;;;;;22.35;47.92;98316.97;5068013;28;20025;-78
2021/09/06 06:52:49;;;;;;;18.20;9.40;;;;;;;20.82;52.33;98312.50;5067874;28;20040;-78
2021/09/06 06:55:15;;;;;;;18.60;10.43;;;;;;;21.25;54.16;98333.06;5051071;28;20033;-78
2021/09/06 06:57:40;;;;;;;19.15;9.70;;;;;;;23.03;49.37;98299.28;5059490;28;20120;-78
2021/09/06 07:00:07;;;;;;;17.90;9.23;;;;;;;24.92;44.62;98297.56;5067474;28;20116;-78
2021/09/06 07:02:32;;;;;;;13.07;8.63;;;;;;;25.20;43.86;98311.84;5066659;28;20500;-78
2021/09/06 07:04:58;;;;;;;15.25;8.07;;;;;;;25.32;43.24;98318.72;5071825;28;20032;-77
2021/09/06 07:07:23;;;;;;;14.27;7.78;;;;;;;23.41;47.58;98330.06;5071078;28;20028;-77
2021/09/06 07:09:49;;;;;;;14.50;7.93;;;;;;;22.88;50.28;98332.69;5054250;28;20400;-77
2021/09/06 07:12:14;;;;;;;14.45;8.18;;;;;;;23.54;49.36;98335.97;5070934;28;20507;-78
2021/09/06 07:14:40;;;;;;;16.55;7.70;;;;;;;24.64;46.89;98332.50;5067591;28;20036;-78
2021/09/06 07:17:05;;;;;;;13.05;8.13;;;;;;;25.08;45.32;98340.59;5050990;28;20035;-78
2021/09/06 07:19:31;;;;;;;14.85;7.90;;;;;;;26.55;42.79;98333.13;5046041;28;20036;-79
2021/09/06 07:21:56;;;;;;;16.05;7.88;;;;;;;26.04;43.23;98325.31;5054085;28;20068;-78
2021/09/06 07:24:22;;;;;;;14.73;6.95;;;;;;;26.28;42.73;98334.38;5053758;28;20039;-79
2021/09/06 07:26:47;;;;;;;15.07;7.00;;;;;;;27.25;40.78;98325.81;5071319;28;20491;-79
2021/09/06 07:29:13;;;;;;;19.00;9.00;;;;;;;27.52;40.02;98318.09;5070742;28;20150;-79
2021/09/06 07:31:38;;;;;;;14.25;8.38;;;;;;;26.70;41.19;98316.78;5066423;28;20035;-78
2021/09/06 07:34:04;;;;;;;12.85;8.25;;;;;;;24.44;46.10;98352.06;5091223;28;20114;-81
2021/09/06 07:36:32;;;;;;;26.88;8.43;;;;;;;23.32;49.02;98370.03;5056733;28;20446;-79
2021/09/06 07:38:58;;;;;;;16.05;7.75;;;;;;;23.57;48.95;98376.63;5091379;28;20423;-80
2021/09/06 07:41:26;;;;;;;10.65;7.88;;;;;;;23.02;49.97;98362.19;5073517;28;20030;-80
2021/09/06 07:43:51;;;;;;;19.08;8.55;;;;;;;23.40;49.95;98356.50;5054399;28;20068;-77
2021/09/06 07:46:17;;;;;;;23.85;9.25;;;;;;;22.98;50.56;98323.41;5053283;28;20066;-77
2021/09/06 07:48:42;;;;;;;16.17;9.02;;;;;;;22.77;50.99;98349.25;5066632;28;20112;-80
2021/09/06 07:51:08;;;;;;;18.38;8.45;;;;;;;21.61;54.71;98370.44;5091206;28;20031;-79
2021/09/06 07:53:33;;;;;;;18.75;8.50;;;;;;;21.29;55.73;98373.44;5070219;28;20016;-78
2021/09/06 07:55:59;;;;;;;16.38;8.38;;;;;;;20.39;58.84;98350.84;5089773;28;20020;-77
2021/09/06 07:58:25;;;;;;;15.20;9.43;;;;;;;20.29;61.26;98370.81;5091473;28;20020;-78
2021/09/06 08:00:51;;;;;;;18.42;8.48;;;;;;;19.92;62.06;98357.69;5053654;28;20028;-79
2021/09/06 08:03:16;;;;;;;18.80;11.02;;;;;;;20.01;63.05;98351.47;5073607;28;20480;-78
2021/09/06 08:05:42;;;;;;;17.20;8.32;;;;;;;20.03;62.55;98349.47;5073634;28;20020;-77
2021/09/06 08:08:07;;;;;;;19.33;8.18;;;;;;;19.61;64.11;98336.91;5056539;28;20173;-78
2021/09/06 08:10:33;;;;;;;14.35;8.30;;;;;;;20.02;64.16;98374.06;5070138;28;20154;-78
2021/09/06 08:12:59;;;;;;;17.38;8.77;;;;;;;20.27;62.86;98357.34;5069784;28;20103;-78
2021/09/06 08:15:28;;;;;;;13.57;8.63;;;;;;;20.71;61.42;98375.13;5069978;28;20104;-77
2021/09/06 08:17:53;;;;;;;16.85;8.52;;;;;;;21.37;58.15;98373.59;5070582;28;20153;-78
2021/09/06 08:20:19;;;;;;;13.10;7.72;;;;;;;21.60;57.18;98375.03;5073491;28;20495;-78
2021/09/06 08:22:45;;;;;;;17.58;8.27;;;;;;;21.68;57.01;98371.59;5073498;28;20181;-79
2021/09/06 08:25:11;;;;;;;16.27;8.50;;;;;;;20.58;59.75;98369.06;5072450;28;20035;-78
2021/09/06 08:27:38;;;;;;;16.92;9.23;;;;;;;19.80;63.28;98375.06;5073447;28;20020;-78
2021/09/06 08:30:04;;;;;;;16.25;9.07;;;;;;;19.42;66.30;98378.31;5072879;28;20031;-78
2021/09/06 08:32:30;;;;;;;16.13;8.13;;;;;;;20.16;63.71;98370.97;5073632;28;20032;-78
2021/09/06 08:34:55;;;;;;;18.08;8.77;;;;;;;20.67;61.92;98375.56;5073364;28;20039;-78
2021/09/06 08:37:22;;;;;;;18.30;8.27;;;;;;;20.90;61.04;98380.63;5053077;28;20120;-78
2021/09/06 08:39:48;;;;;;;13.65;8.77;;;;;;;20.93;60.88;98382.22;5069043;28;20031;-78
2021/09/06 08:42:14;;;;;;;16.95;8.68;;;;;;;20.63;61.47;98388.56;5073057;28;20020;-78
2021/09/06 08:44:41;;;;;;;18.75;8.07;;;;;;;20.23;63.47;98363.16;5052939;28;20024;-78
2021/09/06 08:47:07;;;;;;;15.30;8.75;;;;;;;20.66;62.03;98385.56;5053032;28;20031;-77
2021/09/06 08:49:33;;;;;;;19.30;8.85;;;;;;;19.73;65.94;98378.41;5075867;28;20012;-79
2021/09/06 08:51:59;;;;;;;20.88;14.60;;;;;;;19.63;66.68;98385.59;5059525;28;20461;-78
2021/09/06 08:54:25;;;;;;;20.38;9.68;;;;;;;19.47;68.58;98364.38;5077024;28;20548;-79
2021/09/06 08:56:51;;;;;;;14.13;8.55;;;;;;;19.70;67.45;98379.53;5076852;28;20436;-79
2021/09/06 08:59:17;;;;;;;15.32;9.65;;;;;;;19.77;67.68;98380.75;5059407;28;20074;-79
2021/09/06 09:01:45;;;;;;;17.40;9.20;;;;;;;19.93;66.50;98388.44;5076879;28;20052;-80
2021/09/06 09:04:28;;;;;;;15.27;8.73;;;;;;;20.12;65.77;98385.00;5076315;28;20484;-79
2021/09/06 09:06:58;;;;;;;22.20;8.68;;;;;;;20.06;65.35;98388.25;5060103;28;20044;-79
2021/09/06 09:09:32;;;;;;;15.43;7.32;;;;;;;19.77;65.41;98359.03;5094723;28;20095;-79
2021/09/06 09:12:16;;;;;;;12.80;8.38;;;;;;;20.27;64.23;98378.25;5059494;28;20039;-79
2021/09/06 09:14:47;;;;;;;16.55;8.27;;;;;;;20.73;61.63;98378.59;5059660;28;20032;-80
2021/09/06 09:17:13;;;;;;;17.60;8.15;;;;;;;20.99;60.75;98370.78;5059091;28;20050;-79
2021/09/06 09:19:39;;;;;;;15.15;7.93;;;;;;;21.16;60.81;98372.88;5072433;28;20028;-80
2021/09/06 09:22:08;;;;;;;17.42;7.55;;;;;;;21.03;59.68;98364.06;5072929;28;20059;-80
2021/09/06 09:24:37;;;;;;;11.30;7.63;;;;;;;21.50;58.02;98390.50;5072463;28;20029;-80
2021/09/06 09:27:08;;;;;;;16.90;7.82;;;;;;;21.71;57.75;98395.84;5056547;28;20028;-80
2021/09/06 09:29:33;;;;;;;15.10;8.32;;;;;;;21.50;56.53;98378.78;5075831;28;20020;-78
2021/09/06 09:32:05;;;;;;;13.07;8.30;;;;;;;21.53;57.11;98389.38;5075684;28;20024;-78
2021/09/06 09:34:31;;;;;;;15.43;8.32;;;;;;;22.07;55.84;98380.63;5051637;28;20089;-79
2021/09/06 09:36:58;;;;;;;15.10;7.38;;;;;;;22.92;52.12;98366.84;5072534;28;20029;-78
2021/09/06 09:39:24;;;;;;;19.48;7.50;;;;;;;25.01;48.93;98367.75;5071926;28;20446;-79
2021/09/06 09:41:53;;;;;;;12.45;7.10;;;;;;;27.78;42.17;98368.13;5067456;28;20024;-80
2021/09/06 09:44:22;;;;;;;14.50;8.07;;;;;;;27.55;42.29;98379.09;5073275;28;20079;-80
2021/09/06 09:46:59;;;;;;;14.48;7.90;;;;;;;27.22;42.49;98369.28;5075746;28;20042;-80
2021/09/06 09:49:26;;;;;;;11.05;7.40;;;;;;;25.85;46.01;98395.06;5075391;28;20059;-80
2021/09/06 09:51:52;;;;;;;12.38;7.28;;;;;;;24.51;47.43;98366.81;5058783;28;20131;-81
2021/09/06 09:54:18;;;;;;;15.18;8.73;;;;;;;24.06;49.98;98389.72;5073962;28;20515;-80
2021/09/06 09:56:45;;;;;;;16.48;9.52;;;;;;;24.35;48.67;98386.72;5075436;28;20068;-79
2021/09/06 09:59:12;;;;;;;10.10;6.97;;;;;;;23.49;49.42;98388.34;5058058;28;20028;-80
2021/09/06 10:01:49;;;;;;;9.77;6.75;;;;;;;24.29;48.33;98357.28;5074372;28;20059;-80
2021/09/06 10:04:15;;;;;;;9.10;6.35;;;;;;;26.19;44.05;98359.25;5056338;28;20086;-81
2021/09/06 10:06:42;;;;;;;12.98;8.02;;;;;;;26.82;42.33;98356.59;5071654;28;20454;-80
2021/09/06 10:09:07;;;;;;;13.93;7.32;;;;;;;26.57;42.44;98354.91;5071715;28;20054;-80
2021/09/06 10:11:42;;;;;;;11.32;7.03;;;;;;;26.21;43.78;98358.06;5075123;28;20027;-80
2021/09/06 10:14:15;;;;;;;18.88;7.32;;;;;;;25.24;45.93;98382.59;5074915;28;20073;-80
2021/09/06 10:16:41;;;;;;;12.40;6.97;;;;;;;24.47;47.85;98385.44;5071783;28;20025;-80
2021/09/06 10:19:10;;;;;;;11.18;7.20;;;;;;;23.57;50.03;98385.69;5089178;28;20453;-80
2021/09/06 10:21:50;;;;;;;14.63;7.65;;;;;;;23.65;51.33;98388.53;5058592;28;20035;-80
2021/09/06 10:24:18;;;;;;;15.60;8.68;;;;;;;22.80;52.02;98363.44;5072477;28;20090;-80
2021/09/06 10:26:45;;;;;;;9.68;6.43;;;;;;;24.44;48.41;98366.59;5071494;28;20050;-79
2021/09/06 10:29:13;;;;;;;15.00;10.48;;;;;;;27.28;43.32;98350.19;5054796;28;20040;-79
2021/09/06 10:31:39;;;;;;;14.52;8.07;;;;;;;28.62;39.05;98332.06;5071161;28;20032;-79
2021/09/06 10:34:07;;;;;;;14.40;6.70;;;;;;;30.24;36.51;98330.63;5070661;28;20381;-80
2021/09/06 10:36:33;;;;;;;11.63;6.93;;;;;;;30.57;35.41;98326.25;5058061;28;20024;-79
2021/09/06 10:39:06;;;;;;;9.18;6.32;;;;;;;31.17;33.52;98332.97;5054312;28;20400;-79
2021/09/06 10:41:42;;;;;;;12.10;6.80;;;;;;;28.48;38.51;98347.56;5056562;28;20558;-80
2021/09/06 10:44:08;;;;;;;24.02;17.65;;;;;;;27.55;41.59;98348.84;5074423;28;20494;-79
2021/09/06 10:46:34;;;;;;;18.73;11.60;;;;;;;26.90;41.47;98326.34;5074161;28;20080;-80
2021/09/06 10:49:05;;;;;;;9.98;7.63;;;;;;;27.22;42.04;98342.66;5057645;28;20016;-80
2021/09/06 10:51:33;;;;;;;12.93;6.22;;;;;;;27.62;40.33;98314.09;5073218;28;20035;-80
2021/09/06 10:54:07;;;;;;;11.30;7.20;;;;;;;27.94;39.67;98345.97;5070680;28;20071;-79
2021/09/06 10:56:33;;;;;;;20.13;7.43;;;;;;;26.76;41.83;98338.88;5072646;28;20049;-78
2021/09/06 10:58:59;;;;;;;9.82;6.75;;;;;;;27.00;41.28;98326.13;5075105;28;20024;-79
2021/09/06 11:01:25;;;;;;;18.42;6.55;;;;;;;27.83;40.20;98308.75;5092052;28;20062;-78
2021/09/06 11:03:52;;;;;;;9.55;6.40;;;;;;;28.19;39.21;98322.72;5053860;28;20093;-79
2021/09/06 11:06:24;;;;;;;14.93;8.80;;;;;;;28.37;38.75;98312.22;5067890;28;20039;-80
2021/09/06 11:08:49;;;;;;;;;;;;;;;28.40;38.86;98322.84;5074458;28;20468;-78
2021/09/06 11:11:15;;;;;;;13.90;7.15;;;;;;;29.25;36.80;98298.44;5074102;28;19912;-78
2021/09/06 11:13:45;;;;;;;19.65;7.55;;;;;;;29.74;36.50;98293.00;5090937;28;20473;-78
2021/09/06 11:16:15;;;;;;;15.52;7.47;;;;;;;30.64;35.91;98309.69;5070900;28;20111;-79
2021/09/06 11:18:43;;;;;;;12.10;6.70;;;;;;;31.59;33.48;98287.63;5090263;28;20081;-79